MSC Ludovica — HPAF — position and weather

sailwx.info

Track history (hours):
 
Tides and Currents Weather Stations Pressure Air Temp Water Temp Dewpoint Dewpoint Depression Visibility Wind Speed Wind Dir Waves Ship Positions

MSC Ludovica

Last reported at 2015-May-01 13:31 UTC. Time now 2015-May-04 02:00 UTC.
Position N 31°56' W 080°30'.

Length 301 m; draft 11.3 m.

Type: Ship. MMSI: 351248000.

Date/timePositionNaut miles runAvg speedWind from/ knotsBaromVisibWave heightAir tempDewpointWater temp
2015-May-01 13:31N 31°56' W 080°30'1112.0
2015-May-01 12:34N 31°58' W 080°43'1313.0
2015-May-01 11:33N 32°04' W 080°57'7 7.5
2015-May-01 10:33N 32°05' W 081°06'4 3.8
2015-May-01 09:33N 32°08' W 081°08'0 0.4
2015-May-01 08:31N 32°08' W 081°09'0 0.0
2015-May-01 07:31N 32°08' W 081°09'0 0.0
2015-May-01 06:31N 32°08' W 081°09'0 0.0
2015-May-01 05:32N 32°08' W 081°09'0 0.0
2015-May-01 04:31N 32°08' W 081°09'0 0.0
2015-May-01 03:31N 32°08' W 081°09'0 0.0
2015-May-01 02:31N 32°08' W 081°09'0 0.0
2015-May-01 01:31N 32°08' W 081°09'0 0.0
2015-May-01 00:28N 32°08' W 081°09'0 0.0
2015-Apr-30 23:31N 32°08' W 081°09'0 0.0
2015-Apr-30 22:31N 32°08' W 081°09'0 0.0
2015-Apr-30 21:31N 32°08' W 081°09'0 0.0
2015-Apr-30 20:31N 32°08' W 081°09'0 0.0
2015-Apr-30 19:31N 32°08' W 081°09'0 0.0
2015-Apr-30 18:31N 32°08' W 081°09'0 0.0
2015-Apr-30 17:31N 32°08' W 081°09'0 0.0
2015-Apr-30 16:31N 32°08' W 081°09'0 0.0
2015-Apr-30 15:31N 32°08' W 081°09'0 0.0
2015-Apr-30 14:28N 32°08' W 081°09'1 1.6
2015-Apr-30 13:33N 32°07' W 081°08'6 5.7
2015-Apr-30 12:33N 32°05' W 081°01'10 9.9
2015-Apr-30 11:33N 32°02' W 080°50'1211.6
2015-Apr-30 10:33N 31°54' W 080°40'5 4.9
2015-Apr-30 09:33N 31°49' W 080°40'1 0.8
2015-Apr-30 08:33N 31°50' W 080°39'1 0.9
2015-Apr-30 07:32N 31°50' W 080°38'1 1.0
2015-Apr-30 06:33N 31°51' W 080°37'1 1.2
2015-Apr-30 05:33N 31°51' W 080°36'1 1.2
2015-Apr-30 04:31N 31°51' W 080°34'1 1.2
2015-Apr-30 03:33N 31°52' W 080°33'1 1.2
2015-Apr-30 02:28N 31°53' W 080°33'  
2015-Apr-27 22:16N 26°25' W 078°53'6 7.9
2015-Apr-27 21:33N 26°25' W 078°59'1 0.8
2015-Apr-27 20:33N 26°26' W 078°59'1 1.0
2015-Apr-27 19:33N 26°27' W 078°59'1 1.1
2015-Apr-27 18:32N 26°28' W 078°60'1 1.2
2015-Apr-27 17:33N 26°29' W 079°01'7 7.4
2015-Apr-27 16:33N 26°21' W 078°59'4 2.0
2015-Apr-27 14:28N 26°17' W 078°59'1 1.6
2015-Apr-27 13:33N 26°19' W 078°59'2 1.6
2015-Apr-27 12:33N 26°20' W 079°00'1 1.3
2015-Apr-27 11:33N 26°21' W 079°01'1 1.2
2015-Apr-27 10:33N 26°22' W 079°02'1 1.2
2015-Apr-27 09:29N 26°23' W 079°03'1 1.1
2015-Apr-27 08:17N 26°23' W 079°04'0 0.4
2015-Apr-27 07:33N 26°23' W 079°05'8 5.8
2015-Apr-27 06:15N 26°24' W 078°56'7 2.7
2015-Apr-27 03:31N 26°19' W 079°02'9 9.8
2015-Apr-27 02:33N 26°14' W 079°11'1110.6
2015-Apr-27 01:33N 26°07' W 079°20'1010.2
2015-Apr-27 00:33N 25°59' W 079°26'1111.5
2015-Apr-26 23:34N 25°47' W 079°29'1211.6
2015-Apr-26 22:33N 25°36' W 079°32'1211.9
2015-Apr-26 21:34N 25°24' W 079°34'4812.0
2015-Apr-26 17:33N 24°38' W 079°49'1414.2
2015-Apr-26 16:32N 24°32' W 080°03'5513.5
2015-Apr-26 12:29N 24°14' W 081°00'2713.9
2015-Apr-26 10:33N 24°13' W 081°30'1414.4
2015-Apr-26 09:33N 24°13' W 081°46'1413.9
2015-Apr-26 08:33N 24°12' W 082°01'1413.5
2015-Apr-26 07:30N 24°12' W 082°16'1713.5
2015-Apr-26 06:15N 24°11' W 082°35'913.3
2015-Apr-26 05:33N 24°11' W 082°45'1313.2
2015-Apr-26 04:33N 24°10' W 082°59'1212.2
2015-Apr-26 03:33N 24°13' W 083°12'1414.0
2015-Apr-26 02:33N 24°24' W 083°21'  
2015-Apr-23 00:27N 29°55' W 089°56'10 0.9
2015-Apr-22 14:12N 29°55' W 090°07'0 0.0
2015-Apr-22 13:30N 29°55' W 090°07'0 0.0
2015-Apr-22 12:18N 29°55' W 090°07'0 0.0
2015-Apr-22 10:18N 29°55' W 090°07'0 0.0
2015-Apr-22 09:30N 29°55' W 090°07'0 0.0
2015-Apr-22 08:24N 29°55' W 090°07'0 0.0
2015-Apr-22 07:24N 29°55' W 090°07'0 0.0
2015-Apr-22 06:06N 29°55' W 090°07'0 0.0
2015-Apr-22 05:12N 29°55' W 090°07'  
Track history (hours):
 
Tides and Currents Weather Stations Pressure Air Temp Water Temp Dewpoint Dewpoint Depression Visibility Wind Speed Wind Dir Waves Ship Positions

MSC Ludovica

Last reported at 2015-May-01 13:31 UTC. Time now 2015-May-04 02:00 UTC.
Position N 31°56' W 080°30'.

Length 301 m; draft 11.3 m.

Type: Ship. MMSI: 351248000.

Date/timePositionNaut miles runAvg speedWind from/ knotsBaromVisibWave heightAir tempDewpointWater temp
2015-May-01 13:31N 31°56' W 080°30'1112.0
2015-May-01 12:34N 31°58' W 080°43'1313.0
2015-May-01 11:33N 32°04' W 080°57'7 7.5
2015-May-01 10:33N 32°05' W 081°06'4 3.8
2015-May-01 09:33N 32°08' W 081°08'0 0.4
2015-May-01 08:31N 32°08' W 081°09'0 0.0
2015-May-01 07:31N 32°08' W 081°09'0 0.0
2015-May-01 06:31N 32°08' W 081°09'0 0.0
2015-May-01 05:32N 32°08' W 081°09'0 0.0
2015-May-01 04:31N 32°08' W 081°09'0 0.0
2015-May-01 03:31N 32°08' W 081°09'0 0.0
2015-May-01 02:31N 32°08' W 081°09'0 0.0
2015-May-01 01:31N 32°08' W 081°09'0 0.0
2015-May-01 00:28N 32°08' W 081°09'0 0.0
2015-Apr-30 23:31N 32°08' W 081°09'0 0.0
2015-Apr-30 22:31N 32°08' W 081°09'0 0.0
2015-Apr-30 21:31N 32°08' W 081°09'0 0.0
2015-Apr-30 20:31N 32°08' W 081°09'0 0.0
2015-Apr-30 19:31N 32°08' W 081°09'0 0.0
2015-Apr-30 18:31N 32°08' W 081°09'0 0.0
2015-Apr-30 17:31N 32°08' W 081°09'0 0.0
2015-Apr-30 16:31N 32°08' W 081°09'0 0.0
2015-Apr-30 15:31N 32°08' W 081°09'0 0.0
2015-Apr-30 14:28N 32°08' W 081°09'1 1.6
2015-Apr-30 13:33N 32°07' W 081°08'6 5.7
2015-Apr-30 12:33N 32°05' W 081°01'10 9.9
2015-Apr-30 11:33N 32°02' W 080°50'1211.6
2015-Apr-30 10:33N 31°54' W 080°40'5 4.9
2015-Apr-30 09:33N 31°49' W 080°40'1 0.8
2015-Apr-30 08:33N 31°50' W 080°39'1 0.9
2015-Apr-30 07:32N 31°50' W 080°38'1 1.0
2015-Apr-30 06:33N 31°51' W 080°37'1 1.2
2015-Apr-30 05:33N 31°51' W 080°36'1 1.2
2015-Apr-30 04:31N 31°51' W 080°34'1 1.2
2015-Apr-30 03:33N 31°52' W 080°33'1 1.2
2015-Apr-30 02:28N 31°53' W 080°33'  
2015-Apr-27 22:16N 26°25' W 078°53'6 7.9
2015-Apr-27 21:33N 26°25' W 078°59'1 0.8
2015-Apr-27 20:33N 26°26' W 078°59'1 1.0
2015-Apr-27 19:33N 26°27' W 078°59'1 1.1
2015-Apr-27 18:32N 26°28' W 078°60'1 1.2
2015-Apr-27 17:33N 26°29' W 079°01'7 7.4
2015-Apr-27 16:33N 26°21' W 078°59'4 2.0
2015-Apr-27 14:28N 26°17' W 078°59'1 1.6
2015-Apr-27 13:33N 26°19' W 078°59'2 1.6
2015-Apr-27 12:33N 26°20' W 079°00'1 1.3
2015-Apr-27 11:33N 26°21' W 079°01'1 1.2
2015-Apr-27 10:33N 26°22' W 079°02'1 1.2
2015-Apr-27 09:29N 26°23' W 079°03'1 1.1
2015-Apr-27 08:17N 26°23' W 079°04'0 0.4
2015-Apr-27 07:33N 26°23' W 079°05'8 5.8
2015-Apr-27 06:15N 26°24' W 078°56'7 2.7
2015-Apr-27 03:31N 26°19' W 079°02'9 9.8
2015-Apr-27 02:33N 26°14' W 079°11'1110.6
2015-Apr-27 01:33N 26°07' W 079°20'1010.2
2015-Apr-27 00:33N 25°59' W 079°26'1111.5
2015-Apr-26 23:34N 25°47' W 079°29'1211.6
2015-Apr-26 22:33N 25°36' W 079°32'1211.9
2015-Apr-26 21:34N 25°24' W 079°34'4812.0
2015-Apr-26 17:33N 24°38' W 079°49'1414.2
2015-Apr-26 16:32N 24°32' W 080°03'5513.5
2015-Apr-26 12:29N 24°14' W 081°00'2713.9
2015-Apr-26 10:33N 24°13' W 081°30'1414.4
2015-Apr-26 09:33N 24°13' W 081°46'1413.9
2015-Apr-26 08:33N 24°12' W 082°01'1413.5
2015-Apr-26 07:30N 24°12' W 082°16'1713.5
2015-Apr-26 06:15N 24°11' W 082°35'913.3
2015-Apr-26 05:33N 24°11' W 082°45'1313.2
2015-Apr-26 04:33N 24°10' W 082°59'1212.2
2015-Apr-26 03:33N 24°13' W 083°12'1414.0
2015-Apr-26 02:33N 24°24' W 083°21'  
2015-Apr-23 00:27N 29°55' W 089°56'10 0.9
2015-Apr-22 14:12N 29°55' W 090°07'0 0.0
2015-Apr-22 13:30N 29°55' W 090°07'0 0.0
2015-Apr-22 12:18N 29°55' W 090°07'0 0.0
2015-Apr-22 10:18N 29°55' W 090°07'0 0.0
2015-Apr-22 09:30N 29°55' W 090°07'0 0.0
2015-Apr-22 08:24N 29°55' W 090°07'0 0.0
2015-Apr-22 07:24N 29°55' W 090°07'0 0.0
2015-Apr-22 06:06N 29°55' W 090°07'0 0.0
2015-Apr-22 05:12N 29°55' W 090°07'  

Dump ship's entire track history